Time;durP1;ratioP1;P1;durP2;ratioP2;P2;SDS_P1;SDS_P2;PMS_P1;PMS_P2;Temp;Humidity;BMP_temperature;BMP_pressure;BME280_temperature;BME280_humidity;BME280_pressure;Samples;Min_cycle;Max_cycle;Signal;HPM_P1;HPM_P2
2023/01/07 00:01:38;;;;;;;25.93;23.10;;;9.70;99.90;;;;;;4990257;28;90188;-33
2023/01/07 00:04:06;;;;;;;24.75;22.10;;;9.70;99.90;;;;;;4978118;28;89300;-33
2023/01/07 00:06:34;;;;;;;25.23;22.55;;;9.80;99.90;;;;;;4978726;28;90071;-36
2023/01/07 00:09:01;;;;;;;26.58;21.05;;;9.80;99.90;;;;;;4978686;28;89852;-34
2023/01/07 00:11:34;;;;;;;23.23;20.70;;;9.90;99.90;;;;;;4978284;28;90226;-34
2023/01/07 00:14:02;;;;;;;20.77;18.08;;;9.90;99.90;;;;;;4978509;28;87751;-36
2023/01/07 00:16:29;;;;;;;24.85;20.45;;;9.80;99.90;;;;;;4977722;28;90295;-34
2023/01/07 00:18:56;;;;;;;22.33;19.50;;;9.90;99.90;;;;;;4981757;28;89723;-33
2023/01/07 00:21:23;;;;;;;22.48;20.05;;;9.90;99.90;;;;;;4986393;28;89622;-33
2023/01/07 00:23:54;;;;;;;23.95;20.77;;;9.90;99.90;;;;;;4983368;28;87971;-33
2023/01/07 00:26:20;;;;;;;25.55;21.85;;;9.90;99.90;;;;;;4997541;28;88867;-33
2023/01/07 00:28:49;;;;;;;24.50;21.65;;;9.90;99.90;;;;;;4990683;28;90491;-33
2023/01/07 00:31:17;;;;;;;25.73;21.55;;;9.90;99.90;;;;;;4977569;28;90964;-33
2023/01/07 00:36:23;;;;;;;24.70;22.02;;;9.90;99.90;;;;;;4982246;28;90429;-33
2023/01/07 00:39:00;;;;;;;24.20;21.67;;;10.00;99.90;;;;;;4980558;28;89840;-32
2023/01/07 00:41:27;;;;;;;23.15;20.67;;;10.00;99.90;;;;;;4981828;28;89589;-34
2023/01/07 00:43:52;;;;;;;25.10;22.30;;;10.00;99.90;;;;;;4981654;28;88020;-32
2023/01/07 00:46:18;;;;;;;23.35;20.85;;;10.10;99.90;;;;;;4981502;28;90426;-33
2023/01/07 00:48:44;;;;;;;23.30;20.83;;;10.10;99.90;;;;;;4981102;28;90599;-35
2023/01/07 00:51:14;;;;;;;25.40;22.52;;;10.20;99.90;;;;;;4981427;28;89850;-32
2023/01/07 00:53:39;;;;;;;24.40;21.95;;;10.20;99.90;;;;;;4992395;28;89343;-33
2023/01/07 00:56:05;;;;;;;22.40;20.10;;;10.20;99.90;;;;;;4984963;28;89974;-34
2023/01/07 00:58:31;;;;;;;22.67;20.38;;;10.20;99.90;;;;;;4980483;28;91766;-33
2023/01/07 01:00:59;;;;;;;25.88;23.05;;;10.20;99.90;;;;;;4980544;28;89572;-33
2023/01/07 01:03:26;;;;;;;26.55;23.80;;;10.20;99.90;;;;;;4981008;28;89533;-36
2023/01/07 01:05:52;;;;;;;24.48;21.90;;;10.30;99.90;;;;;;4981772;28;89814;-31
2023/01/07 01:08:19;;;;;;;23.88;20.88;;;10.30;99.90;;;;;;4980371;28;89466;-33
2023/01/07 01:10:45;;;;;;;27.08;21.88;;;10.30;99.90;;;;;;4980689;28;89857;-34
2023/01/07 01:13:16;;;;;;;26.30;23.10;;;10.30;99.90;;;;;;4980938;28;89310;-32
2023/01/07 01:15:46;;;;;;;25.10;22.08;;;10.30;99.90;;;;;;4995057;28;90364;-32
2023/01/07 01:18:12;;;;;;;27.80;22.88;;;10.30;99.90;;;;;;5000834;28;88537;-32
2023/01/07 01:20:38;;;;;;;23.60;21.05;;;10.40;99.90;;;;;;4996136;28;89615;-33
2023/01/07 01:23:05;;;;;;;30.35;24.08;;;10.40;99.90;;;;;;4981554;28;89407;-35
2023/01/07 01:25:30;;;;;;;26.60;23.88;;;10.30;99.90;;;;;;5000012;28;90471;-34
2023/01/07 01:27:56;;;;;;;23.50;21.20;;;10.30;99.90;;;;;;4997983;28;89881;-34
2023/01/07 01:30:22;;;;;;;25.40;20.83;;;10.30;99.90;;;;;;5000172;28;89478;-33
2023/01/07 01:32:47;;;;;;;26.23;23.13;;;10.40;99.90;;;;;;4998996;28;90000;-33
2023/01/07 01:35:13;;;;;;;27.58;24.33;;;10.30;99.90;;;;;;4981337;28;90293;-32
2023/01/07 01:37:39;;;;;;;26.08;23.42;;;10.30;99.90;;;;;;5001914;28;91077;-32
2023/01/07 01:40:05;;;;;;;25.52;22.77;;;10.30;99.90;;;;;;5001368;28;90579;-32
2023/01/07 01:42:32;;;;;;;25.90;22.67;;;10.40;99.90;;;;;;5000619;28;89687;-34
2023/01/07 01:45:00;;;;;;;25.58;20.85;;;10.40;99.90;;;;;;4998684;28;90234;-32
2023/01/07 01:47:45;;;;;;;24.17;20.50;;;10.40;99.90;;;;;;4998195;28;89699;-35
2023/01/07 01:50:31;;;;;;;30.23;22.10;;;10.40;99.90;;;;;;4999020;28;91399;-34
2023/01/07 01:53:06;;;;;;;26.17;21.48;;;10.50;99.90;;;;;;5000081;28;89008;-34
2023/01/07 01:55:39;;;;;;;24.88;18.67;;;10.40;99.90;;;;;;4999382;28;90261;-35
2023/01/07 01:58:12;;;;;;;23.17;20.00;;;10.40;99.90;;;;;;4999180;28;89722;-34
2023/01/07 02:00:38;;;;;;;24.38;21.58;;;10.40;99.90;;;;;;4998278;28;89553;-33
2023/01/07 02:03:07;;;;;;;25.92;22.42;;;10.40;99.90;;;;;;4998846;28;89322;-33
2023/01/07 02:05:36;;;;;;;23.05;20.27;;;10.40;99.90;;;;;;4999143;28;90312;-33
2023/01/07 02:08:02;;;;;;;23.10;20.60;;;10.50;99.90;;;;;;4986925;28;89768;-32
2023/01/07 02:10:30;;;;;;;25.88;21.67;;;10.50;99.90;;;;;;4996204;28;89373;-32
2023/01/07 02:13:10;;;;;;;25.63;21.77;;;10.40;99.90;;;;;;4998873;28;89362;-32
2023/01/07 02:15:54;;;;;;;22.33;19.80;;;10.50;99.90;;;;;;4996050;28;90859;-32
2023/01/07 02:18:33;;;;;;;21.80;19.60;;;10.50;99.90;;;;;;4998095;28;89845;-35
2023/01/07 02:21:38;;;;;;;28.90;20.83;;;10.50;99.90;;;;;;4986949;28;90356;-33
2023/01/07 02:24:28;;;;;;;26.10;22.80;;;10.50;99.90;;;;;;4998524;28;90529;-32
2023/01/07 02:27:06;;;;;;;29.90;21.88;;;10.50;99.90;;;;;;4998989;28;89804;-32
2023/01/07 02:30:02;;;;;;;21.33;19.10;;;10.50;99.90;;;;;;4996774;28;90264;-33
2023/01/07 02:32:53;;;;;;;27.10;20.80;;;10.50;99.90;;;;;;4996578;28;90657;-32
2023/01/07 02:35:51;;;;;;;24.95;22.45;;;10.50;99.90;;;;;;4997945;28;88384;-32
2023/01/07 02:38:50;;;;;;;24.15;21.25;;;10.50;99.90;;;;;;4998174;28;90218;-33
2023/01/07 02:41:33;;;;;;;21.70;19.35;;;10.50;99.90;;;;;;4998746;28;88923;-33
2023/01/07 02:44:15;;;;;;;24.10;21.60;;;10.50;99.90;;;;;;4977333;28;89105;-33
2023/01/07 02:46:43;;;;;;;28.92;21.55;;;10.50;99.90;;;;;;4998161;28;89570;-33
2023/01/07 02:49:12;;;;;;;25.38;21.90;;;10.50;99.90;;;;;;4995764;28;90255;-34
2023/01/07 02:51:40;;;;;;;23.23;20.73;;;10.50;99.90;;;;;;4997601;28;90373;-32
2023/01/07 02:54:12;;;;;;;25.58;21.80;;;10.50;99.90;;;;;;4997009;28;89101;-32
2023/01/07 02:57:09;;;;;;;29.45;21.75;;;10.50;99.90;;;;;;4977996;28;88810;-34
2023/01/07 02:59:54;;;;;;;26.02;20.83;;;10.50;99.90;;;;;;4978294;28;90613;-38
2023/01/07 03:02:52;;;;;;;22.13;19.02;;;10.50;99.90;;;;;;4979421;28;89370;-32
2023/01/07 03:05:42;;;;;;;23.15;20.42;;;10.50;99.90;;;;;;4978540;28;89982;-32
2023/01/07 03:08:54;;;;;;;29.25;21.23;;;10.50;99.90;;;;;;4978812;28;89904;-33
2023/01/07 03:11:23;;;;;;;22.23;19.88;;;10.50;99.90;;;;;;4978768;28;89891;-32
2023/01/07 03:14:08;;;;;;;23.35;19.52;;;10.50;99.90;;;;;;4978206;28;89472;-32
2023/01/07 03:16:44;;;;;;;19.00;17.05;;;10.50;99.90;;;;;;4989255;28;90098;-32
2023/01/07 03:19:16;;;;;;;21.45;19.23;;;10.50;99.90;;;;;;4978854;28;88427;-32
2023/01/07 03:21:43;;;;;;;21.23;18.83;;;10.50;99.90;;;;;;4977988;28;90203;-34
2023/01/07 03:24:08;;;;;;;20.77;17.23;;;10.50;99.90;;;;;;4989978;28;90748;-34
2023/01/07 03:26:39;;;;;;;21.40;19.17;;;10.50;99.90;;;;;;4979838;28;89984;-32
2023/01/07 03:29:07;;;;;;;21.58;18.48;;;10.40;99.90;;;;;;4978903;28;89473;-32
2023/01/07 03:31:35;;;;;;;26.70;19.27;;;10.50;99.90;;;;;;4984490;28;90368;-33
2023/01/07 03:34:07;;;;;;;22.63;19.10;;;10.40;99.90;;;;;;4996341;28;89552;-32
2023/01/07 03:36:41;;;;;;;24.52;19.40;;;10.50;99.90;;;;;;4985855;28;89109;-33
2023/01/07 03:39:09;;;;;;;23.23;18.73;;;10.50;99.90;;;;;;4996225;28;89674;-34
2023/01/07 03:44:20;;;;;;;21.20;18.83;;;10.50;99.90;;;;;;4996654;28;89722;-34
2023/01/07 03:46:46;;;;;;;19.48;17.23;;;10.40;99.90;;;;;;4997125;28;90133;-33
2023/01/07 03:49:12;;;;;;;25.55;19.52;;;10.40;99.90;;;;;;4996522;28;90432;-32
2023/01/07 03:51:37;;;;;;;21.08;19.00;;;10.50;99.90;;;;;;4996436;28;90218;-32
2023/01/07 03:54:03;;;;;;;20.50;18.20;;;10.40;99.90;;;;;;4979055;28;89361;-35
2023/01/07 03:56:29;;;;;;;20.48;15.85;;;10.40;99.90;;;;;;4997566;28;91551;-33
2023/01/07 03:58:55;;;;;;;22.50;20.15;;;10.50;99.90;;;;;;4997247;28;89583;-32
2023/01/07 04:01:20;;;;;;;22.92;19.02;;;10.50;99.90;;;;;;4996347;28;90431;-34
2023/01/07 04:03:46;;;;;;;22.52;17.50;;;10.50;99.90;;;;;;4996477;28;89614;-32
2023/01/07 04:06:11;;;;;;;20.88;18.65;;;10.50;99.90;;;;;;4996641;28;89300;-35
2023/01/07 04:08:37;;;;;;;20.27;18.17;;;10.40;99.90;;;;;;4996740;28;89343;-33
2023/01/07 04:11:03;;;;;;;21.25;17.75;;;10.40;99.90;;;;;;4997659;28;89840;-33
2023/01/07 04:13:28;;;;;;;21.00;17.38;;;10.40;99.90;;;;;;4999820;28;92085;-34
2023/01/07 04:15:54;;;;;;;18.17;16.40;;;10.40;99.90;;;;;;4999252;28;90529;-32
2023/01/07 04:18:19;;;;;;;20.30;17.67;;;10.40;99.90;;;;;;5000812;28;88961;-35
2023/01/07 04:20:46;;;;;;;16.35;14.57;;;10.40;99.90;;;;;;4998709;28;90673;-32
2023/01/07 04:23:13;;;;;;;21.08;16.50;;;10.40;99.90;;;;;;4999765;28;90077;-33
2023/01/07 04:25:40;;;;;;;20.92;18.80;;;10.40;99.90;;;;;;4994445;28;89571;-33
2023/01/07 04:28:06;;;;;;;18.80;15.50;;;10.40;99.90;;;;;;4990436;28;89355;-32
2023/01/07 04:30:32;;;;;;;16.67;14.85;;;10.30;99.90;;;;;;4994092;28;91470;-33
2023/01/07 04:32:58;;;;;;;18.80;16.73;;;10.30;99.90;;;;;;4989305;28;89878;-32
2023/01/07 04:35:24;;;;;;;18.02;15.45;;;10.30;99.90;;;;;;4993160;28;89338;-33
2023/01/07 04:37:50;;;;;;;20.50;16.38;;;10.30;99.90;;;;;;5005048;28;89678;-34
2023/01/07 04:40:15;;;;;;;16.73;13.93;;;10.30;99.90;;;;;;4994668;28;91269;-33
2023/01/07 04:42:41;;;;;;;18.55;15.35;;;10.30;99.90;;;;;;4989302;28;89537;-33
2023/01/07 04:45:07;;;;;;;18.38;15.48;;;10.30;99.90;;;;;;4993451;28;89503;-33
2023/01/07 04:47:33;;;;;;;16.20;14.48;;;10.40;99.90;;;;;;4988374;28;89080;-32
2023/01/07 04:49:58;;;;;;;16.02;14.18;;;10.40;99.90;;;;;;4993387;28;90350;-33
2023/01/07 04:52:24;;;;;;;17.08;15.10;;;10.40;99.90;;;;;;4988713;28;89060;-35
2023/01/07 04:54:50;;;;;;;18.48;13.52;;;10.40;99.90;;;;;;4992390;28;89883;-35
2023/01/07 04:57:15;;;;;;;15.68;13.65;;;10.30;99.90;;;;;;4987327;28;89449;-33
2023/01/07 04:59:41;;;;;;;15.85;12.75;;;10.30;99.90;;;;;;4990875;28;91159;-35
2023/01/07 05:02:06;;;;;;;20.08;14.55;;;10.40;99.90;;;;;;4986966;28;90337;-34
2023/01/07 05:04:32;;;;;;;17.38;13.30;;;10.40;99.90;;;;;;4999198;28;90398;-34
2023/01/07 05:06:57;;;;;;;14.98;13.35;;;10.40;99.90;;;;;;5001601;28;88136;-32
2023/01/07 05:09:23;;;;;;;15.65;13.95;;;10.40;99.90;;;;;;4991627;28;90170;-32
2023/01/07 05:11:49;;;;;;;15.45;12.15;;;10.40;99.90;;;;;;4985907;28;88283;-35
2023/01/07 05:14:14;;;;;;;18.02;12.85;;;10.30;99.90;;;;;;4991332;28;89787;-31
2023/01/07 05:16:40;;;;;;;15.27;13.07;;;10.30;99.90;;;;;;4985841;28;90307;-34
2023/01/07 05:19:05;;;;;;;16.42;13.45;;;10.40;99.90;;;;;;4991862;28;90021;-33
2023/01/07 05:21:31;;;;;;;14.27;12.75;;;10.40;99.90;;;;;;4998415;27;90236;-32
2023/01/07 05:23:56;;;;;;;16.50;12.55;;;10.40;99.90;;;;;;4998193;28;89538;-33
2023/01/07 05:26:22;;;;;;;16.08;13.73;;;10.40;99.90;;;;;;5008249;28;89623;-33
2023/01/07 05:28:48;;;;;;;14.32;12.35;;;10.30;99.90;;;;;;4980501;28;90228;-33
2023/01/07 05:31:13;;;;;;;17.30;12.63;;;10.30;99.90;;;;;;4997106;28;89527;-32
2023/01/07 05:33:39;;;;;;;15.75;12.70;;;10.40;99.90;;;;;;4988990;28;89391;-32
2023/01/07 05:36:05;;;;;;;16.10;11.18;;;10.40;99.90;;;;;;4979919;28;89269;-32
2023/01/07 05:38:30;;;;;;;16.27;11.40;;;10.30;99.90;;;;;;4990543;28;90155;-32
2023/01/07 05:40:56;;;;;;;14.07;11.88;;;10.30;99.90;;;;;;4999245;28;90202;-34
2023/01/07 05:43:22;;;;;;;13.52;12.00;;;10.30;99.90;;;;;;4988475;28;89900;-32
2023/01/07 05:45:47;;;;;;;18.17;12.15;;;10.30;99.90;;;;;;4979595;28;89016;-35
2023/01/07 05:48:13;;;;;;;12.32;10.57;;;10.30;99.90;;;;;;4980386;28;91026;-33
2023/01/07 05:50:39;;;;;;;12.50;11.20;;;10.40;99.90;;;;;;4983543;28;89754;-32
2023/01/07 05:53:05;;;;;;;11.20;10.05;;;10.30;99.90;;;;;;4999826;28;90639;-32
2023/01/07 05:55:30;;;;;;;12.45;9.80;;;10.30;99.90;;;;;;4999426;28;87644;-32
2023/01/07 05:57:56;;;;;;;16.25;10.95;;;10.30;99.90;;;;;;4999648;28;89255;-32
2023/01/07 06:00:22;;;;;;;12.25;10.23;;;10.30;99.90;;;;;;4999307;28;89541;-33
2023/01/07 06:02:47;;;;;;;11.25;10.25;;;10.20;99.90;;;;;;4998529;28;89371;-33
2023/01/07 06:05:13;;;;;;;12.95;10.48;;;10.20;99.90;;;;;;4999643;28;87667;-32
2023/01/07 06:07:38;;;;;;;11.13;10.02;;;10.20;99.90;;;;;;4998678;28;89741;-32
2023/01/07 06:10:04;;;;;;;10.68;9.63;;;10.20;99.90;;;;;;4999341;28;89813;-34
2023/01/07 06:12:30;;;;;;;15.27;9.82;;;10.20;99.90;;;;;;4999538;28;89895;-32
2023/01/07 06:14:56;;;;;;;13.45;10.63;;;10.20;99.90;;;;;;4999924;28;90180;-34
2023/01/07 06:17:21;;;;;;;12.75;10.75;;;10.30;99.90;;;;;;4994087;28;88822;-33
2023/01/07 06:19:47;;;;;;;11.75;10.07;;;10.20;99.90;;;;;;4989977;28;89756;-35
2023/01/07 06:22:14;;;;;;;10.60;9.60;;;10.20;99.90;;;;;;4980678;28;90462;-33
2023/01/07 06:24:39;;;;;;;13.30;10.13;;;10.20;99.90;;;;;;4995542;28;89794;-32
2023/01/07 06:27:05;;;;;;;13.02;10.55;;;10.20;99.90;;;;;;4999367;28;90354;-34
2023/01/07 06:29:31;;;;;;;12.23;9.75;;;10.20;99.90;;;;;;4980686;28;89342;-32
2023/01/07 06:31:57;;;;;;;14.35;9.88;;;10.20;99.90;;;;;;4998998;28;89535;-35
2023/01/07 06:34:22;;;;;;;10.65;9.45;;;10.10;99.90;;;;;;5009153;28;88713;-34
2023/01/07 06:36:48;;;;;;;11.80;10.60;;;10.10;99.90;;;;;;4978980;28;90176;-35
2023/01/07 06:39:14;;;;;;;11.18;10.10;;;10.20;99.90;;;;;;4981862;28;89713;-32
2023/01/07 06:41:39;;;;;;;10.15;9.10;;;10.10;99.90;;;;;;4971096;28;92226;-33
2023/01/07 06:44:05;;;;;;;11.00;9.25;;;10.20;99.90;;;;;;4980730;28;88582;-33
2023/01/07 06:46:31;;;;;;;13.68;10.18;;;10.10;99.90;;;;;;4980404;28;89837;-32
2023/01/07 06:48:56;;;;;;;10.25;9.15;;;10.10;99.90;;;;;;4991953;28;89616;-32
2023/01/07 06:51:22;;;;;;;11.43;9.05;;;10.10;99.90;;;;;;4980452;28;89413;-33
2023/01/07 06:53:47;;;;;;;14.93;8.98;;;10.10;99.90;;;;;;4989763;28;88173;-33
2023/01/07 06:56:13;;;;;;;11.70;8.18;;;10.10;99.90;;;;;;4999100;28;90229;-32
2023/01/07 06:58:39;;;;;;;11.55;9.25;;;10.10;99.90;;;;;;4999084;28;89005;-32
2023/01/07 07:01:06;;;;;;;9.77;8.45;;;10.10;99.90;;;;;;4998655;28;89056;-33
2023/01/07 07:03:32;;;;;;;12.18;9.93;;;10.10;99.90;;;;;;4988882;28;89711;-34
2023/01/07 07:05:57;;;;;;;9.85;8.48;;;10.10;99.90;;;;;;4995197;28;90002;-33
2023/01/07 07:08:23;;;;;;;9.63;8.63;;;10.10;99.90;;;;;;4998888;28;89403;-35
2023/01/07 07:10:49;;;;;;;10.95;9.32;;;10.10;99.90;;;;;;4997895;28;90010;-33
2023/01/07 07:13:14;;;;;;;8.65;7.50;;;10.20;99.90;;;;;;4998919;28;89874;-33
2023/01/07 07:15:40;;;;;;;9.15;8.25;;;10.10;99.90;;;;;;4995083;28;90166;-32
2023/01/07 07:18:06;;;;;;;10.43;7.75;;;10.10;99.90;;;;;;4979280;28;89828;-33
2023/01/07 07:20:31;;;;;;;8.45;7.72;;;10.10;99.90;;;;;;4979345;28;88837;-35
2023/01/07 07:22:57;;;;;;;10.02;8.43;;;10.20;99.90;;;;;;4982286;28;88630;-32
2023/01/07 07:25:23;;;;;;;9.88;8.05;;;10.20;99.90;;;;;;4989393;28;90311;-34
2023/01/07 07:27:48;;;;;;;9.93;8.25;;;10.10;99.90;;;;;;4978198;28;90384;-33
2023/01/07 07:30:15;;;;;;;11.80;8.40;;;10.00;99.90;;;;;;4978651;28;90527;-32
2023/01/07 07:32:41;;;;;;;10.10;7.53;;;10.10;99.90;;;;;;4987017;28;89155;-34
2023/01/07 07:35:07;;;;;;;9.60;8.63;;;10.10;99.90;;;;;;4980524;28;89837;-34
2023/01/07 07:37:33;;;;;;;10.32;7.38;;;10.10;99.90;;;;;;4980135;28;89258;-32
2023/01/07 07:39:59;;;;;;;9.48;8.48;;;10.00;99.90;;;;;;4979790;28;89808;-34
2023/01/07 07:42:24;;;;;;;7.90;7.10;;;10.10;99.90;;;;;;4979803;28;90868;-33
2023/01/07 07:44:50;;;;;;;7.32;6.63;;;10.00;99.90;;;;;;4980868;28;89211;-33
2023/01/07 07:47:15;;;;;;;10.20;8.25;;;10.10;99.90;;;;;;4988543;28;89736;-34
2023/01/07 07:49:41;;;;;;;9.45;7.72;;;10.00;99.90;;;;;;5002260;28;89588;-33
2023/01/07 07:52:07;;;;;;;10.15;7.68;;;9.90;99.90;;;;;;4982931;28;90187;-34
2023/01/07 07:54:33;;;;;;;8.85;7.95;;;9.90;99.90;;;;;;4995315;28;89870;-34
2023/01/07 07:56:59;;;;;;;6.75;6.15;;;9.90;99.90;;;;;;4982881;28;89447;-34
2023/01/07 07:59:25;;;;;;;12.07;8.73;;;10.00;99.90;;;;;;4982684;28;88281;-35
2023/01/07 08:01:50;;;;;;;8.52;7.72;;;10.00;99.90;;;;;;4997702;28;88568;-34
2023/01/07 08:04:16;;;;;;;10.10;7.88;;;9.90;99.90;;;;;;5007200;28;90155;-34
2023/01/07 08:06:42;;;;;;;8.43;7.18;;;9.90;99.90;;;;;;5001414;28;89945;-32
2023/01/07 08:09:07;;;;;;;9.55;8.68;;;9.90;99.90;;;;;;5002015;28;89811;-34
2023/01/07 08:11:33;;;;;;;8.18;7.35;;;9.90;99.90;;;;;;5001479;28;88988;-33
2023/01/07 08:13:59;;;;;;;7.90;6.65;;;9.90;99.90;;;;;;4982365;28;89987;-33
2023/01/07 08:16:24;;;;;;;8.77;7.07;;;9.90;99.90;;;;;;4999586;28;90579;-33
2023/01/07 08:18:50;;;;;;;11.88;7.70;;;9.90;99.90;;;;;;5000733;28;90960;-33
2023/01/07 08:21:16;;;;;;;9.82;8.05;;;9.90;99.90;;;;;;5001519;28;88359;-32
2023/01/07 08:23:41;;;;;;;7.75;7.13;;;9.90;99.90;;;;;;5000310;28;89554;-32
2023/01/07 08:26:07;;;;;;;9.40;7.45;;;9.80;99.90;;;;;;5001558;28;89586;-33
2023/01/07 08:28:33;;;;;;;9.70;7.22;;;9.90;99.90;;;;;;4994354;28;89125;-34
2023/01/07 08:31:03;;;;;;;8.38;6.55;;;9.90;99.90;;;;;;4989137;28;89655;-35
2023/01/07 08:33:32;;;;;;;7.72;7.00;;;9.90;99.90;;;;;;5001838;28;90274;-32
2023/01/07 08:35:58;;;;;;;8.15;6.80;;;10.00;99.90;;;;;;5000199;28;90327;-35
2023/01/07 08:38:26;;;;;;;7.15;6.45;;;10.10;99.90;;;;;;5001902;28;89658;-34
2023/01/07 08:40:51;;;;;;;8.13;7.43;;;10.00;99.90;;;;;;5000369;28;90012;-33
2023/01/07 08:43:17;;;;;;;6.40;5.82;;;10.00;99.90;;;;;;5000790;28;90508;-33
2023/01/07 08:45:47;;;;;;;7.50;6.18;;;10.00;99.90;;;;;;4999820;28;89632;-32
2023/01/07 08:48:13;;;;;;;10.88;7.45;;;10.00;99.90;;;;;;5000945;28;89940;-33
2023/01/07 08:50:38;;;;;;;7.95;6.75;;;10.00;99.90;;;;;;5000025;28;89649;-33
2023/01/07 08:53:04;;;;;;;9.40;6.30;;;9.90;99.90;;;;;;5000506;28;90274;-34
2023/01/07 08:55:29;;;;;;;6.63;5.93;;;10.00;99.90;;;;;;4998699;28;89262;-33
2023/01/07 08:57:55;;;;;;;7.55;6.38;;;9.90;99.90;;;;;;4986646;28;89511;-33
2023/01/07 09:00:21;;;;;;;8.25;6.43;;;10.00;99.90;;;;;;4990941;28;88386;-33
2023/01/07 09:02:47;;;;;;;6.72;5.28;;;10.10;99.90;;;;;;4991622;28;90502;-32
2023/01/07 09:05:12;;;;;;;6.85;6.07;;;10.10;99.90;;;;;;4996930;28;91923;-33
2023/01/07 09:07:38;;;;;;;6.30;4.82;;;10.20;99.90;;;;;;5000303;28;89580;-33
2023/01/07 09:10:05;;;;;;;5.55;5.05;;;10.20;99.90;;;;;;5001218;28;89604;-32
2023/01/07 09:12:31;;;;;;;6.18;5.68;;;10.30;99.90;;;;;;5000493;28;90712;-33
2023/01/07 09:14:57;;;;;;;6.32;4.80;;;10.40;99.90;;;;;;5000927;28;89697;-34
2023/01/07 09:17:22;;;;;;;6.70;5.05;;;10.50;99.90;;;;;;5000670;28;88764;-32
2023/01/07 09:19:48;;;;;;;6.25;4.13;;;10.50;99.90;;;;;;5000442;28;89811;-33
2023/01/07 09:22:14;;;;;;;4.75;4.32;;;10.60;99.90;;;;;;4983823;28;91030;-33
2023/01/07 09:24:39;;;;;;;5.80;4.60;;;10.60;99.90;;;;;;4996873;28;89671;-32
2023/01/07 09:27:05;;;;;;;5.97;5.10;;;10.60;99.90;;;;;;5000340;28;89774;-35
2023/01/07 09:29:30;;;;;;;4.97;4.60;;;10.80;99.90;;;;;;5002196;28;89518;-33
2023/01/07 09:31:56;;;;;;;4.18;3.88;;;10.70;99.90;;;;;;5000561;28;90270;-34
2023/01/07 09:34:22;;;;;;;8.73;5.07;;;10.80;99.90;;;;;;4981307;28;88677;-32
2023/01/07 09:36:47;;;;;;;5.97;3.47;;;10.70;99.90;;;;;;4990524;28;90851;-32
2023/01/07 09:39:13;;;;;;;7.45;4.10;;;10.60;99.90;;;;;;5017319;22;89137;-31
2023/01/07 09:42:08;;;;;;;5.40;4.53;;;10.60;99.90;;;;;;4981399;28;89409;-33
2023/01/07 09:44:36;;;;;;;4.45;4.00;;;10.50;99.90;;;;;;4967739;28;90178;-35
2023/01/07 09:47:03;;;;;;;5.20;4.70;;;10.50;99.90;;;;;;4980618;28;89507;-35
2023/01/07 09:49:31;;;;;;;5.70;4.33;;;10.50;99.90;;;;;;4980731;28;87801;-34
2023/01/07 09:52:25;;;;;;;4.90;3.85;;;10.60;99.90;;;;;;4979230;28;90084;-33
2023/01/07 09:55:02;;;;;;;5.53;3.90;;;10.50;99.90;;;;;;4975720;28;90359;-35
2023/01/07 09:57:28;;;;;;;7.60;3.33;;;10.60;99.90;;;;;;4978620;28;90777;-32
2023/01/07 09:59:54;;;;;;;4.75;3.40;;;10.60;99.90;;;;;;4976556;28;89812;-33
2023/01/07 10:02:42;;;;;;;3.35;3.05;;;10.60;99.90;;;;;;4969445;28;90230;-33
2023/01/07 10:05:53;;;;;;;3.08;2.88;;;10.60;99.90;;;;;;4970539;28;89266;-33
2023/01/07 10:08:26;;;;;;;3.20;2.72;;;10.70;99.90;;;;;;4976479;28;89303;-32
2023/01/07 10:11:00;;;;;;;3.65;3.28;;;10.80;99.90;;;;;;4972188;28;89560;-33
2023/01/07 10:13:37;;;;;;;3.72;3.00;;;10.80;99.90;;;;;;4977446;28;91006;-32
2023/01/07 10:16:18;;;;;;;3.23;2.77;;;10.90;99.90;;;;;;4977009;28;89689;-32
2023/01/07 10:18:53;;;;;;;7.82;4.22;;;10.90;99.90;;;;;;4941974;28;89273;-33
2023/01/07 10:21:30;;;;;;;5.10;3.10;;;10.90;99.90;;;;;;4970030;28;90121;-36
2023/01/07 10:24:02;;;;;;;3.05;2.53;;;10.90;99.90;;;;;;4972253;28;90640;-34
2023/01/07 10:26:38;;;;;;;3.28;2.97;;;11.00;99.90;;;;;;4976655;28;90397;-32
2023/01/07 10:29:12;;;;;;;3.60;2.67;;;11.00;99.90;;;;;;4977173;28;89809;-32
2023/01/07 10:31:38;;;;;;;4.90;2.88;;;11.00;99.90;;;;;;4976345;28;87878;-33
2023/01/07 10:34:18;;;;;;;3.60;2.88;;;11.10;99.90;;;;;;4977262;28;90890;-32
2023/01/07 10:36:55;;;;;;;2.63;2.40;;;11.10;99.90;;;;;;4971064;28;90039;-34
2023/01/07 10:39:51;;;;;;;4.00;2.78;;;11.10;99.90;;;;;;4972190;28;89554;-33
2023/01/07 10:42:49;;;;;;;2.60;2.40;;;11.20;99.90;;;;;;4963928;28;88137;-34
2023/01/07 10:45:23;;;;;;;3.00;2.70;;;11.10;99.90;;;;;;4943088;28;90171;-34
2023/01/07 10:48:10;;;;;;;2.60;2.25;;;11.10;99.90;;;;;;4976659;28;90678;-33
2023/01/07 10:50:54;;;;;;;2.72;2.53;;;11.10;99.90;;;;;;4975700;28;90417;-33
2023/01/07 10:53:49;;;;;;;2.90;2.58;;;11.20;99.90;;;;;;4976875;28;88948;-35
2023/01/07 10:56:31;;;;;;;2.80;2.67;;;11.10;99.90;;;;;;4975298;28;89277;-33
2023/01/07 10:58:57;;;;;;;2.25;2.15;;;11.10;99.90;;;;;;4973664;28;89710;-33
2023/01/07 11:01:27;;;;;;;2.47;2.28;;;11.10;99.90;;;;;;4975648;28;89991;-32
2023/01/07 11:03:55;;;;;;;3.80;2.60;;;11.20;99.90;;;;;;4976245;28;88795;-33
2023/01/07 11:06:52;;;;;;;3.88;3.53;;;11.10;99.90;;;;;;4975171;28;90591;-32
2023/01/07 11:09:31;;;;;;;2.20;2.10;;;11.10;99.90;;;;;;4966764;28;89921;-33
2023/01/07 11:12:01;;;;;;;3.30;2.80;;;11.20;99.90;;;;;;4977036;28;89956;-35
2023/01/07 11:14:33;;;;;;;2.85;2.47;;;11.30;99.90;;;;;;4988916;28;90907;-33
2023/01/07 11:17:16;;;;;;;3.92;2.95;;;11.20;99.90;;;;;;4945721;28;90616;-34
2023/01/07 11:19:43;;;;;;;2.95;2.38;;;11.20;99.90;;;;;;4975981;28;90362;-33
2023/01/07 11:22:31;;;;;;;3.40;2.83;;;11.30;99.90;;;;;;4975512;28;89611;-34
2023/01/07 11:24:59;;;;;;;2.92;2.72;;;11.20;99.90;;;;;;4976596;28;89784;-34
2023/01/07 11:27:30;;;;;;;;;;;11.20;99.90;;;;;;4976097;28;90071;-34
2023/01/07 11:30:25;;;;;;;2.72;2.53;;;11.30;99.90;;;;;;4977119;28;90015;-33
2023/01/07 11:33:23;;;;;;;2.38;2.20;;;11.30;99.90;;;;;;4976052;28;89510;-33
2023/01/07 11:35:54;;;;;;;3.88;2.08;;;11.20;99.90;;;;;;4976850;28;88528;-36
2023/01/07 11:38:31;;;;;;;2.65;2.42;;;11.20;99.90;;;;;;4975660;28;90234;-34
2023/01/07 11:40:59;;;;;;;3.13;2.92;;;11.20;99.90;;;;;;4974698;28;89474;-36
2023/01/07 11:43:34;;;;;;;2.92;2.55;;;11.20;99.90;;;;;;4976445;28;90296;-36
2023/01/07 11:46:01;;;;;;;2.55;2.35;;;11.20;99.90;;;;;;4975745;28;88619;-33
2023/01/07 11:48:30;;;;;;;3.17;2.30;;;11.20;99.90;;;;;;4975226;28;89870;-35
2023/01/07 11:50:57;;;;;;;;;;;11.20;99.90;;;;;;4975831;28;90409;-34
2023/01/07 11:53:40;;;;;;;2.75;2.47;;;11.20;99.90;;;;;;4977141;28;90298;-32
2023/01/07 11:56:10;;;;;;;2.72;2.53;;;11.20;99.90;;;;;;4975739;28;88425;-32
2023/01/07 11:58:42;;;;;;;2.65;2.45;;;11.20;99.90;;;;;;4975942;28;91359;-33
2023/01/07 12:01:07;;;;;;;2.47;2.20;;;11.20;99.90;;;;;;4975496;28;90347;-33
2023/01/07 12:03:42;;;;;;;2.97;2.78;;;11.30;99.90;;;;;;4975901;28;89799;-33
2023/01/07 12:06:29;;;;;;;4.07;2.38;;;11.30;99.90;;;;;;4975537;28;90016;-33
2023/01/07 12:09:11;;;;;;;2.13;2.00;;;11.30;99.90;;;;;;4976132;28;90353;-33
2023/01/07 12:11:40;;;;;;;3.88;2.60;;;11.40;99.90;;;;;;4976397;28;89952;-34
2023/01/07 12:14:21;;;;;;;3.45;2.40;;;11.40;99.90;;;;;;4976484;28;88050;-32
2023/01/07 12:16:49;;;;;;;2.55;2.35;;;11.30;99.90;;;;;;4975939;28;89142;-35
2023/01/07 12:19:18;;;;;;;3.27;3.07;;;11.40;99.90;;;;;;4975997;28;89885;-33
2023/01/07 12:22:10;;;;;;;3.10;2.08;;;11.40;99.90;;;;;;4975587;28;92450;-32
2023/01/07 12:24:47;;;;;;;2.83;2.13;;;11.40;99.90;;;;;;4975887;28;89703;-36
2023/01/07 12:27:35;;;;;;;2.87;1.90;;;11.40;99.90;;;;;;4976925;28;88748;-35
2023/01/07 12:30:18;;;;;;;2.30;2.17;;;11.40;99.90;;;;;;4976256;28;89759;-32
2023/01/07 12:32:55;;;;;;;2.10;1.90;;;11.40;99.90;;;;;;4977692;28;90685;-33
2023/01/07 12:35:26;;;;;;;2.78;2.00;;;11.40;99.90;;;;;;4979760;28;89954;-33
2023/01/07 12:38:01;;;;;;;2.70;2.03;;;11.50;99.90;;;;;;4978656;28;88764;-33
2023/01/07 12:40:38;;;;;;;2.67;2.10;;;11.60;99.90;;;;;;4979493;28;90382;-33
2023/01/07 12:43:19;;;;;;;5.20;2.08;;;11.60;99.90;;;;;;4968069;28;89692;-34
2023/01/07 12:45:53;;;;;;;3.20;2.17;;;11.60;99.90;;;;;;4979556;28;89372;-34
2023/01/07 12:48:25;;;;;;;2.38;2.03;;;11.60;99.90;;;;;;4979258;28;88431;-33
2023/01/07 12:50:54;;;;;;;2.53;2.33;;;11.60;99.90;;;;;;4978555;28;90131;-33
2023/01/07 12:53:24;;;;;;;2.85;2.05;;;11.70;99.90;;;;;;4978711;28;89194;-34
2023/01/07 12:56:03;;;;;;;2.58;2.38;;;11.60;99.90;;;;;;4978238;28;91221;-33
2023/01/07 12:58:44;;;;;;;5.57;2.65;;;11.60;99.90;;;;;;4977880;28;91458;-34
2023/01/07 13:01:35;;;;;;;2.75;2.55;;;11.60;99.90;;;;;;4979398;28;90056;-33